sensor_id;sensor_type;location;lat;lon;timestamp;P1;durP1;ratioP1;P2;durP2;ratioP2
68989;SDS011;56046;47.270;11.368;2023-08-21T00:01:43;6.60;;;3.40;;
68989;SDS011;56046;47.270;11.368;2023-08-21T00:04:08;8.33;;;3.77;;
68989;SDS011;56046;47.270;11.368;2023-08-21T00:06:34;9.13;;;3.70;;
68989;SDS011;56046;47.270;11.368;2023-08-21T00:09:00;6.90;;;3.67;;
68989;SDS011;56046;47.270;11.368;2023-08-21T00:11:25;7.45;;;3.53;;
68989;SDS011;56046;47.270;11.368;2023-08-21T00:13:51;8.10;;;3.73;;
68989;SDS011;56046;47.270;11.368;2023-08-21T00:16:16;7.97;;;3.83;;
68989;SDS011;56046;47.270;11.368;2023-08-21T00:18:42;8.53;;;4.13;;
68989;SDS011;56046;47.270;11.368;2023-08-21T00:21:07;7.63;;;3.93;;
68989;SDS011;56046;47.270;11.368;2023-08-21T00:23:32;7.27;;;3.93;;
68989;SDS011;56046;47.270;11.368;2023-08-21T00:25:57;8.17;;;3.60;;
68989;SDS011;56046;47.270;11.368;2023-08-21T00:28:23;8.50;;;4.30;;
68989;SDS011;56046;47.270;11.368;2023-08-21T00:30:48;8.73;;;4.80;;
68989;SDS011;56046;47.270;11.368;2023-08-21T00:33:13;7.47;;;4.37;;
68989;SDS011;56046;47.270;11.368;2023-08-21T00:35:38;10.13;;;4.33;;
68989;SDS011;56046;47.270;11.368;2023-08-21T00:38:04;7.50;;;4.13;;
68989;SDS011;56046;47.270;11.368;2023-08-21T00:40:30;7.07;;;4.47;;
68989;SDS011;56046;47.270;11.368;2023-08-21T00:42:55;8.60;;;3.97;;
68989;SDS011;56046;47.270;11.368;2023-08-21T00:45:21;7.10;;;3.83;;
68989;SDS011;56046;47.270;11.368;2023-08-21T00:47:46;10.17;;;4.30;;
68989;SDS011;56046;47.270;11.368;2023-08-21T00:50:11;8.37;;;4.43;;
68989;SDS011;56046;47.270;11.368;2023-08-21T00:52:38;9.67;;;4.17;;
68989;SDS011;56046;47.270;11.368;2023-08-21T00:55:04;8.80;;;4.28;;
68989;SDS011;56046;47.270;11.368;2023-08-21T00:57:30;8.55;;;3.55;;
68989;SDS011;56046;47.270;11.368;2023-08-21T00:59:56;8.40;;;4.50;;
68989;SDS011;56046;47.270;11.368;2023-08-21T01:02:21;7.53;;;4.07;;
68989;SDS011;56046;47.270;11.368;2023-08-21T01:04:47;10.13;;;4.93;;
68989;SDS011;56046;47.270;11.368;2023-08-21T01:07:13;8.20;;;4.77;;
68989;SDS011;56046;47.270;11.368;2023-08-21T01:12:09;9.47;;;4.60;;
68989;SDS011;56046;47.270;11.368;2023-08-21T01:17:02;8.47;;;4.37;;
68989;SDS011;56046;47.270;11.368;2023-08-21T01:19:36;7.85;;;4.25;;
68989;SDS011;56046;47.270;11.368;2023-08-21T01:22:02;9.07;;;4.32;;
68989;SDS011;56046;47.270;11.368;2023-08-21T01:24:27;7.50;;;4.60;;
68989;SDS011;56046;47.270;11.368;2023-08-21T01:26:52;8.23;;;4.63;;
68989;SDS011;56046;47.270;11.368;2023-08-21T01:29:18;7.97;;;4.70;;
68989;SDS011;56046;47.270;11.368;2023-08-21T01:31:44;8.65;;;5.28;;
68989;SDS011;56046;47.270;11.368;2023-08-21T01:34:12;7.73;;;4.10;;
68989;SDS011;56046;47.270;11.368;2023-08-21T01:36:39;8.35;;;4.90;;
68989;SDS011;56046;47.270;11.368;2023-08-21T01:39:05;7.85;;;4.60;;
68989;SDS011;56046;47.270;11.368;2023-08-21T01:41:30;9.47;;;4.80;;
68989;SDS011;56046;47.270;11.368;2023-08-21T01:43:55;9.43;;;5.17;;
68989;SDS011;56046;47.270;11.368;2023-08-21T01:46:21;7.17;;;4.67;;
68989;SDS011;56046;47.270;11.368;2023-08-21T01:48:46;9.30;;;4.93;;
68989;SDS011;56046;47.270;11.368;2023-08-21T01:51:11;9.70;;;4.90;;
68989;SDS011;56046;47.270;11.368;2023-08-21T01:53:38;9.45;;;4.63;;
68989;SDS011;56046;47.270;11.368;2023-08-21T01:56:03;13.03;;;4.37;;
68989;SDS011;56046;47.270;11.368;2023-08-21T01:58:28;9.27;;;4.77;;
68989;SDS011;56046;47.270;11.368;2023-08-21T02:00:53;8.03;;;4.40;;
68989;SDS011;56046;47.270;11.368;2023-08-21T02:03:19;7.57;;;4.87;;
68989;SDS011;56046;47.270;11.368;2023-08-21T02:05:44;7.97;;;4.70;;
68989;SDS011;56046;47.270;11.368;2023-08-21T02:08:13;7.67;;;4.47;;
68989;SDS011;56046;47.270;11.368;2023-08-21T02:10:46;7.82;;;4.82;;
68989;SDS011;56046;47.270;11.368;2023-08-21T02:13:11;9.68;;;4.68;;
68989;SDS011;56046;47.270;11.368;2023-08-21T02:15:38;7.73;;;4.73;;
68989;SDS011;56046;47.270;11.368;2023-08-21T02:18:03;7.28;;;4.55;;
68989;SDS011;56046;47.270;11.368;2023-08-21T02:20:28;9.07;;;4.90;;
68989;SDS011;56046;47.270;11.368;2023-08-21T02:22:54;7.23;;;4.90;;
68989;SDS011;56046;47.270;11.368;2023-08-21T02:25:19;9.27;;;5.20;;
68989;SDS011;56046;47.270;11.368;2023-08-21T02:27:44;10.00;;;5.00;;
68989;SDS011;56046;47.270;11.368;2023-08-21T02:30:09;8.53;;;4.70;;
68989;SDS011;56046;47.270;11.368;2023-08-21T02:32:35;12.10;;;4.93;;
68989;SDS011;56046;47.270;11.368;2023-08-21T02:35:00;9.88;;;4.85;;
68989;SDS011;56046;47.270;11.368;2023-08-21T02:37:25;9.77;;;5.20;;
68989;SDS011;56046;47.270;11.368;2023-08-21T02:39:51;9.27;;;4.90;;
68989;SDS011;56046;47.270;11.368;2023-08-21T02:42:16;9.63;;;5.20;;
68989;SDS011;56046;47.270;11.368;2023-08-21T02:44:41;8.67;;;5.00;;
68989;SDS011;56046;47.270;11.368;2023-08-21T02:47:06;9.70;;;5.30;;
68989;SDS011;56046;47.270;11.368;2023-08-21T02:49:32;7.80;;;4.73;;
68989;SDS011;56046;47.270;11.368;2023-08-21T02:51:57;11.30;;;5.30;;
68989;SDS011;56046;47.270;11.368;2023-08-21T02:54:22;8.57;;;5.10;;
68989;SDS011;56046;47.270;11.368;2023-08-21T02:56:47;9.10;;;4.80;;
68989;SDS011;56046;47.270;11.368;2023-08-21T02:59:13;8.33;;;5.10;;
68989;SDS011;56046;47.270;11.368;2023-08-21T03:01:38;7.87;;;5.00;;
68989;SDS011;56046;47.270;11.368;2023-08-21T03:04:03;9.27;;;5.20;;
68989;SDS011;56046;47.270;11.368;2023-08-21T03:06:29;7.13;;;4.83;;
68989;SDS011;56046;47.270;11.368;2023-08-21T03:08:54;10.20;;;4.90;;
68989;SDS011;56046;47.270;11.368;2023-08-21T03:11:19;9.07;;;5.30;;
68989;SDS011;56046;47.270;11.368;2023-08-21T03:13:44;8.40;;;5.03;;
68989;SDS011;56046;47.270;11.368;2023-08-21T03:16:10;10.90;;;5.83;;
68989;SDS011;56046;47.270;11.368;2023-08-21T03:18:41;8.33;;;5.10;;
68989;SDS011;56046;47.270;11.368;2023-08-21T03:21:18;8.30;;;4.78;;
68989;SDS011;56046;47.270;11.368;2023-08-21T03:23:43;10.07;;;4.70;;
68989;SDS011;56046;47.270;11.368;2023-08-21T03:26:08;8.83;;;4.77;;
68989;SDS011;56046;47.270;11.368;2023-08-21T03:28:33;8.73;;;5.00;;
68989;SDS011;56046;47.270;11.368;2023-08-21T03:30:59;11.63;;;4.93;;
68989;SDS011;56046;47.270;11.368;2023-08-21T03:33:25;8.50;;;4.72;;
68989;SDS011;56046;47.270;11.368;2023-08-21T03:35:53;7.40;;;4.83;;
68989;SDS011;56046;47.270;11.368;2023-08-21T03:38:18;7.47;;;5.20;;
68989;SDS011;56046;47.270;11.368;2023-08-21T03:40:43;11.47;;;5.30;;
68989;SDS011;56046;47.270;11.368;2023-08-21T03:43:08;12.93;;;5.30;;
68989;SDS011;56046;47.270;11.368;2023-08-21T03:45:34;11.00;;;5.33;;
68989;SDS011;56046;47.270;11.368;2023-08-21T03:47:59;7.50;;;5.00;;
68989;SDS011;56046;47.270;11.368;2023-08-21T03:50:24;10.53;;;5.40;;
68989;SDS011;56046;47.270;11.368;2023-08-21T03:52:49;9.60;;;5.03;;
68989;SDS011;56046;47.270;11.368;2023-08-21T03:55:15;10.00;;;5.50;;
68989;SDS011;56046;47.270;11.368;2023-08-21T03:57:40;8.57;;;5.30;;
68989;SDS011;56046;47.270;11.368;2023-08-21T04:00:05;9.10;;;5.00;;
68989;SDS011;56046;47.270;11.368;2023-08-21T04:02:32;9.23;;;5.32;;
68989;SDS011;56046;47.270;11.368;2023-08-21T04:04:58;9.43;;;5.87;;
68989;SDS011;56046;47.270;11.368;2023-08-21T04:07:23;9.43;;;5.80;;
68989;SDS011;56046;47.270;11.368;2023-08-21T04:09:48;9.83;;;5.90;;
68989;SDS011;56046;47.270;11.368;2023-08-21T04:12:13;8.20;;;5.13;;
68989;SDS011;56046;47.270;11.368;2023-08-21T04:14:39;9.88;;;5.18;;
68989;SDS011;56046;47.270;11.368;2023-08-21T04:17:04;12.93;;;5.50;;
68989;SDS011;56046;47.270;11.368;2023-08-21T04:19:29;9.03;;;5.50;;
68989;SDS011;56046;47.270;11.368;2023-08-21T04:21:57;9.20;;;5.18;;
68989;SDS011;56046;47.270;11.368;2023-08-21T04:24:23;10.40;;;5.37;;
68989;SDS011;56046;47.270;11.368;2023-08-21T04:26:49;8.30;;;5.40;;
68989;SDS011;56046;47.270;11.368;2023-08-21T04:29:14;9.80;;;5.70;;
68989;SDS011;56046;47.270;11.368;2023-08-21T04:31:39;8.07;;;5.33;;
68989;SDS011;56046;47.270;11.368;2023-08-21T04:34:04;10.53;;;5.33;;
68989;SDS011;56046;47.270;11.368;2023-08-21T04:36:30;8.50;;;5.30;;
68989;SDS011;56046;47.270;11.368;2023-08-21T04:38:56;10.30;;;5.03;;
68989;SDS011;56046;47.270;11.368;2023-08-21T04:41:21;9.73;;;6.00;;
68989;SDS011;56046;47.270;11.368;2023-08-21T04:43:46;8.90;;;5.20;;
68989;SDS011;56046;47.270;11.368;2023-08-21T04:46:11;9.23;;;5.33;;
68989;SDS011;56046;47.270;11.368;2023-08-21T04:48:37;9.83;;;5.87;;
68989;SDS011;56046;47.270;11.368;2023-08-21T04:51:02;8.73;;;5.33;;
68989;SDS011;56046;47.270;11.368;2023-08-21T04:53:27;10.27;;;5.57;;
68989;SDS011;56046;47.270;11.368;2023-08-21T04:55:52;9.47;;;5.73;;
68989;SDS011;56046;47.270;11.368;2023-08-21T04:58:18;9.57;;;5.97;;
68989;SDS011;56046;47.270;11.368;2023-08-21T05:00:44;9.00;;;5.40;;
68989;SDS011;56046;47.270;11.368;2023-08-21T05:03:09;8.95;;;5.65;;
68989;SDS011;56046;47.270;11.368;2023-08-21T05:05:35;9.30;;;5.73;;
68989;SDS011;56046;47.270;11.368;2023-08-21T05:08:00;10.80;;;5.97;;
68989;SDS011;56046;47.270;11.368;2023-08-21T05:10:25;11.30;;;5.80;;
68989;SDS011;56046;47.270;11.368;2023-08-21T05:12:51;8.97;;;5.87;;
68989;SDS011;56046;47.270;11.368;2023-08-21T05:15:16;11.33;;;5.17;;
68989;SDS011;56046;47.270;11.368;2023-08-21T05:17:41;10.90;;;5.70;;
68989;SDS011;56046;47.270;11.368;2023-08-21T05:20:07;9.03;;;5.73;;
68989;SDS011;56046;47.270;11.368;2023-08-21T05:22:32;10.40;;;5.33;;
68989;SDS011;56046;47.270;11.368;2023-08-21T05:24:57;7.87;;;5.17;;
68989;SDS011;56046;47.270;11.368;2023-08-21T05:27:23;13.13;;;5.90;;
68989;SDS011;56046;47.270;11.368;2023-08-21T05:29:48;9.97;;;6.03;;
68989;SDS011;56046;47.270;11.368;2023-08-21T05:32:15;9.32;;;5.65;;
68989;SDS011;56046;47.270;11.368;2023-08-21T05:34:41;9.37;;;5.83;;
68989;SDS011;56046;47.270;11.368;2023-08-21T05:37:06;9.43;;;5.93;;
68989;SDS011;56046;47.270;11.368;2023-08-21T05:39:32;18.07;;;6.83;;
68989;SDS011;56046;47.270;11.368;2023-08-21T05:41:57;9.83;;;6.30;;
68989;SDS011;56046;47.270;11.368;2023-08-21T05:44:23;10.13;;;6.72;;
68989;SDS011;56046;47.270;11.368;2023-08-21T05:46:49;15.57;;;6.40;;
68989;SDS011;56046;47.270;11.368;2023-08-21T05:49:14;11.03;;;6.60;;
68989;SDS011;56046;47.270;11.368;2023-08-21T05:51:39;9.03;;;5.80;;
68989;SDS011;56046;47.270;11.368;2023-08-21T05:54:04;11.93;;;5.27;;
68989;SDS011;56046;47.270;11.368;2023-08-21T05:56:30;11.70;;;6.77;;
68989;SDS011;56046;47.270;11.368;2023-08-21T05:58:55;12.37;;;5.50;;
68989;SDS011;56046;47.270;11.368;2023-08-21T06:01:20;8.30;;;5.90;;
68989;SDS011;56046;47.270;11.368;2023-08-21T06:03:45;12.90;;;5.90;;
68989;SDS011;56046;47.270;11.368;2023-08-21T06:06:11;11.97;;;6.30;;
68989;SDS011;56046;47.270;11.368;2023-08-21T06:08:36;11.73;;;5.97;;
68989;SDS011;56046;47.270;11.368;2023-08-21T06:11:01;9.30;;;6.10;;
68989;SDS011;56046;47.270;11.368;2023-08-21T06:13:26;11.43;;;6.37;;
68989;SDS011;56046;47.270;11.368;2023-08-21T06:15:52;10.57;;;6.43;;
68989;SDS011;56046;47.270;11.368;2023-08-21T06:18:17;11.07;;;6.10;;
68989;SDS011;56046;47.270;11.368;2023-08-21T06:20:43;9.87;;;6.53;;
68989;SDS011;56046;47.270;11.368;2023-08-21T06:23:11;10.25;;;7.13;;
68989;SDS011;56046;47.270;11.368;2023-08-21T06:25:36;14.23;;;6.60;;
68989;SDS011;56046;47.270;11.368;2023-08-21T06:28:02;14.98;;;7.22;;
68989;SDS011;56046;47.270;11.368;2023-08-21T06:30:27;10.70;;;6.53;;
68989;SDS011;56046;47.270;11.368;2023-08-21T06:32:53;12.43;;;6.67;;
68989;SDS011;56046;47.270;11.368;2023-08-21T06:35:18;11.32;;;7.00;;
68989;SDS011;56046;47.270;11.368;2023-08-21T06:37:43;12.63;;;7.20;;
68989;SDS011;56046;47.270;11.368;2023-08-21T06:40:09;11.93;;;7.07;;
68989;SDS011;56046;47.270;11.368;2023-08-21T06:42:34;12.97;;;6.73;;
68989;SDS011;56046;47.270;11.368;2023-08-21T06:44:59;11.40;;;6.63;;
68989;SDS011;56046;47.270;11.368;2023-08-21T06:47:25;13.53;;;7.30;;
68989;SDS011;56046;47.270;11.368;2023-08-21T06:49:50;13.27;;;7.67;;
68989;SDS011;56046;47.270;11.368;2023-08-21T06:52:15;10.80;;;6.55;;
68989;SDS011;56046;47.270;11.368;2023-08-21T06:54:41;10.10;;;6.47;;
68989;SDS011;56046;47.270;11.368;2023-08-21T06:57:06;8.93;;;6.47;;
68989;SDS011;56046;47.270;11.368;2023-08-21T06:59:31;9.93;;;6.70;;
68989;SDS011;56046;47.270;11.368;2023-08-21T07:02:00;11.07;;;7.45;;
68989;SDS011;56046;47.270;11.368;2023-08-21T07:04:26;11.40;;;7.07;;
68989;SDS011;56046;47.270;11.368;2023-08-21T07:06:51;10.17;;;6.87;;
68989;SDS011;56046;47.270;11.368;2023-08-21T07:09:16;9.57;;;6.93;;
68989;SDS011;56046;47.270;11.368;2023-08-21T07:11:41;11.57;;;6.93;;
68989;SDS011;56046;47.270;11.368;2023-08-21T07:14:07;11.87;;;6.77;;
68989;SDS011;56046;47.270;11.368;2023-08-21T07:16:33;9.70;;;6.45;;
68989;SDS011;56046;47.270;11.368;2023-08-21T07:18:58;11.20;;;6.90;;
68989;SDS011;56046;47.270;11.368;2023-08-21T07:21:23;9.87;;;6.30;;
68989;SDS011;56046;47.270;11.368;2023-08-21T07:23:48;10.20;;;6.40;;
68989;SDS011;56046;47.270;11.368;2023-08-21T07:26:14;11.50;;;6.57;;
68989;SDS011;56046;47.270;11.368;2023-08-21T07:28:39;10.23;;;7.63;;
68989;SDS011;56046;47.270;11.368;2023-08-21T07:31:04;11.87;;;7.30;;
68989;SDS011;56046;47.270;11.368;2023-08-21T07:33:29;10.77;;;7.18;;
68989;SDS011;56046;47.270;11.368;2023-08-21T07:36:01;9.70;;;6.37;;
68989;SDS011;56046;47.270;11.368;2023-08-21T07:38:27;14.63;;;7.13;;
68989;SDS011;56046;47.270;11.368;2023-08-21T07:41:01;10.30;;;7.03;;
68989;SDS011;56046;47.270;11.368;2023-08-21T07:43:27;10.00;;;6.87;;
68989;SDS011;56046;47.270;11.368;2023-08-21T07:45:52;11.23;;;6.63;;
68989;SDS011;56046;47.270;11.368;2023-08-21T07:48:17;11.13;;;6.17;;
68989;SDS011;56046;47.270;11.368;2023-08-21T07:50:50;11.23;;;6.03;;
68989;SDS011;56046;47.270;11.368;2023-08-21T07:53:16;9.70;;;6.83;;
68989;SDS011;56046;47.270;11.368;2023-08-21T07:55:41;9.50;;;7.17;;
68989;SDS011;56046;47.270;11.368;2023-08-21T07:58:06;10.55;;;7.28;;
68989;SDS011;56046;47.270;11.368;2023-08-21T08:00:32;13.23;;;7.03;;
68989;SDS011;56046;47.270;11.368;2023-08-21T08:02:57;13.10;;;7.37;;
68989;SDS011;56046;47.270;11.368;2023-08-21T08:05:23;10.80;;;7.17;;
68989;SDS011;56046;47.270;11.368;2023-08-21T08:07:48;19.05;;;6.43;;
68989;SDS011;56046;47.270;11.368;2023-08-21T08:10:13;11.37;;;7.10;;
68989;SDS011;56046;47.270;11.368;2023-08-21T08:12:41;11.60;;;7.37;;
68989;SDS011;56046;47.270;11.368;2023-08-21T08:15:06;10.25;;;7.28;;
68989;SDS011;56046;47.270;11.368;2023-08-21T08:17:31;10.50;;;6.97;;
68989;SDS011;56046;47.270;11.368;2023-08-21T08:19:56;13.47;;;7.43;;
68989;SDS011;56046;47.270;11.368;2023-08-21T08:22:22;15.10;;;7.93;;
68989;SDS011;56046;47.270;11.368;2023-08-21T08:24:47;12.30;;;7.23;;
68989;SDS011;56046;47.270;11.368;2023-08-21T08:27:14;16.13;;;7.33;;
68989;SDS011;56046;47.270;11.368;2023-08-21T08:29:39;9.75;;;6.45;;
68989;SDS011;56046;47.270;11.368;2023-08-21T08:32:05;12.20;;;6.53;;
68989;SDS011;56046;47.270;11.368;2023-08-21T08:34:30;11.35;;;6.95;;
68989;SDS011;56046;47.270;11.368;2023-08-21T08:36:55;8.43;;;6.50;;
68989;SDS011;56046;47.270;11.368;2023-08-21T08:39:21;10.43;;;6.67;;
68989;SDS011;56046;47.270;11.368;2023-08-21T08:41:59;10.90;;;6.60;;
68989;SDS011;56046;47.270;11.368;2023-08-21T08:44:26;9.80;;;6.28;;
68989;SDS011;56046;47.270;11.368;2023-08-21T08:46:52;11.02;;;6.57;;
68989;SDS011;56046;47.270;11.368;2023-08-21T08:49:17;11.77;;;7.63;;
68989;SDS011;56046;47.270;11.368;2023-08-21T08:51:42;10.13;;;7.10;;
68989;SDS011;56046;47.270;11.368;2023-08-21T08:54:08;11.90;;;7.80;;
68989;SDS011;56046;47.270;11.368;2023-08-21T08:56:34;10.63;;;7.60;;
68989;SDS011;56046;47.270;11.368;2023-08-21T08:58:59;11.27;;;7.20;;
68989;SDS011;56046;47.270;11.368;2023-08-21T09:01:24;8.60;;;6.90;;
68989;SDS011;56046;47.270;11.368;2023-08-21T09:03:50;9.70;;;6.77;;
68989;SDS011;56046;47.270;11.368;2023-08-21T09:06:15;13.32;;;8.05;;
68989;SDS011;56046;47.270;11.368;2023-08-21T09:08:45;11.37;;;6.33;;
68989;SDS011;56046;47.270;11.368;2023-08-21T09:11:18;9.87;;;6.97;;
68989;SDS011;56046;47.270;11.368;2023-08-21T09:13:43;9.43;;;6.60;;
68989;SDS011;56046;47.270;11.368;2023-08-21T09:16:08;13.60;;;7.57;;
68989;SDS011;56046;47.270;11.368;2023-08-21T09:18:34;10.70;;;6.47;;
68989;SDS011;56046;47.270;11.368;2023-08-21T09:21:01;9.32;;;6.32;;
68989;SDS011;56046;47.270;11.368;2023-08-21T09:23:27;11.07;;;7.13;;
68989;SDS011;56046;47.270;11.368;2023-08-21T09:25:53;9.48;;;5.78;;
68989;SDS011;56046;47.270;11.368;2023-08-21T09:28:19;12.30;;;7.07;;
68989;SDS011;56046;47.270;11.368;2023-08-21T09:30:51;9.32;;;6.18;;
68989;SDS011;56046;47.270;11.368;2023-08-21T09:33:17;9.77;;;6.55;;
68989;SDS011;56046;47.270;11.368;2023-08-21T09:35:43;10.93;;;6.13;;
68989;SDS011;56046;47.270;11.368;2023-08-21T09:38:08;7.85;;;6.40;;
68989;SDS011;56046;47.270;11.368;2023-08-21T09:40:34;9.20;;;6.80;;
68989;SDS011;56046;47.270;11.368;2023-08-21T09:43:03;8.95;;;6.93;;
68989;SDS011;56046;47.270;11.368;2023-08-21T09:45:29;8.32;;;6.30;;
68989;SDS011;56046;47.270;11.368;2023-08-21T09:47:55;9.17;;;6.87;;
68989;SDS011;56046;47.270;11.368;2023-08-21T09:50:21;8.93;;;6.07;;
68989;SDS011;56046;47.270;11.368;2023-08-21T09:52:47;9.73;;;6.47;;
68989;SDS011;56046;47.270;11.368;2023-08-21T09:55:15;8.93;;;5.97;;
68989;SDS011;56046;47.270;11.368;2023-08-21T09:57:40;8.95;;;6.20;;
68989;SDS011;56046;47.270;11.368;2023-08-21T10:00:06;8.47;;;6.27;;
68989;SDS011;56046;47.270;11.368;2023-08-21T10:02:43;11.07;;;7.15;;
68989;SDS011;56046;47.270;11.368;2023-08-21T10:05:13;9.90;;;6.47;;
68989;SDS011;56046;47.270;11.368;2023-08-21T10:07:39;9.55;;;6.65;;
68989;SDS011;56046;47.270;11.368;2023-08-21T10:10:05;10.67;;;6.30;;
68989;SDS011;56046;47.270;11.368;2023-08-21T10:12:30;9.35;;;6.60;;
68989;SDS011;56046;47.270;11.368;2023-08-21T10:14:55;10.27;;;6.40;;
68989;SDS011;56046;47.270;11.368;2023-08-21T10:17:21;12.90;;;6.37;;
68989;SDS011;56046;47.270;11.368;2023-08-21T10:19:55;9.30;;;6.23;;
68989;SDS011;56046;47.270;11.368;2023-08-21T10:22:37;10.05;;;7.03;;
68989;SDS011;56046;47.270;11.368;2023-08-21T10:25:03;9.85;;;6.55;;
68989;SDS011;56046;47.270;11.368;2023-08-21T10:27:33;9.67;;;6.87;;
68989;SDS011;56046;47.270;11.368;2023-08-21T10:29:58;10.60;;;6.88;;
68989;SDS011;56046;47.270;11.368;2023-08-21T10:32:24;10.13;;;7.23;;
68989;SDS011;56046;47.270;11.368;2023-08-21T10:34:52;9.77;;;6.63;;
68989;SDS011;56046;47.270;11.368;2023-08-21T10:37:18;9.93;;;6.68;;
68989;SDS011;56046;47.270;11.368;2023-08-21T10:39:56;10.80;;;7.00;;
68989;SDS011;56046;47.270;11.368;2023-08-21T10:42:37;12.52;;;6.53;;
68989;SDS011;56046;47.270;11.368;2023-08-21T10:45:09;8.55;;;6.13;;
68989;SDS011;56046;47.270;11.368;2023-08-21T10:47:35;8.93;;;6.85;;
68989;SDS011;56046;47.270;11.368;2023-08-21T10:50:05;9.73;;;6.83;;
68989;SDS011;56046;47.270;11.368;2023-08-21T10:52:31;12.45;;;6.80;;
68989;SDS011;56046;47.270;11.368;2023-08-21T10:54:59;9.85;;;5.80;;
68989;SDS011;56046;47.270;11.368;2023-08-21T10:57:24;10.27;;;6.15;;
68989;SDS011;56046;47.270;11.368;2023-08-21T10:59:57;9.37;;;6.67;;
68989;SDS011;56046;47.270;11.368;2023-08-21T11:02:23;8.13;;;5.55;;
68989;SDS011;56046;47.270;11.368;2023-08-21T11:04:49;10.10;;;6.10;;
68989;SDS011;56046;47.270;11.368;2023-08-21T11:07:14;11.27;;;6.63;;
68989;SDS011;56046;47.270;11.368;2023-08-21T11:09:39;8.77;;;6.43;;
68989;SDS011;56046;47.270;11.368;2023-08-21T11:12:14;8.80;;;5.70;;
68989;SDS011;56046;47.270;11.368;2023-08-21T11:14:40;8.93;;;6.00;;
68989;SDS011;56046;47.270;11.368;2023-08-21T11:17:06;8.60;;;6.15;;
68989;SDS011;56046;47.270;11.368;2023-08-21T11:19:32;9.20;;;6.83;;
68989;SDS011;56046;47.270;11.368;2023-08-21T11:21:58;9.98;;;7.10;;
68989;SDS011;56046;47.270;11.368;2023-08-21T11:24:29;10.27;;;6.00;;
68989;SDS011;56046;47.270;11.368;2023-08-21T11:26:54;9.57;;;5.88;;
68989;SDS011;56046;47.270;11.368;2023-08-21T11:29:20;11.27;;;6.63;;
68989;SDS011;56046;47.270;11.368;2023-08-21T11:31:45;9.65;;;6.07;;
68989;SDS011;56046;47.270;11.368;2023-08-21T11:34:17;14.53;;;6.70;;
68989;SDS011;56046;47.270;11.368;2023-08-21T11:36:43;9.70;;;6.03;;
68989;SDS011;56046;47.270;11.368;2023-08-21T11:39:08;9.80;;;7.00;;
68989;SDS011;56046;47.270;11.368;2023-08-21T11:41:52;10.50;;;7.10;;
68989;SDS011;56046;47.270;11.368;2023-08-21T11:44:17;8.82;;;6.65;;
68989;SDS011;56046;47.270;11.368;2023-08-21T11:46:42;8.57;;;5.93;;
68989;SDS011;56046;47.270;11.368;2023-08-21T11:49:08;11.87;;;6.70;;
68989;SDS011;56046;47.270;11.368;2023-08-21T11:51:37;11.53;;;5.83;;
68989;SDS011;56046;47.270;11.368;2023-08-21T11:54:03;10.48;;;6.60;;
68989;SDS011;56046;47.270;11.368;2023-08-21T11:56:29;10.48;;;5.85;;
68989;SDS011;56046;47.270;11.368;2023-08-21T11:58:54;13.90;;;6.13;;
68989;SDS011;56046;47.270;11.368;2023-08-21T12:01:19;16.60;;;7.63;;
68989;SDS011;56046;47.270;11.368;2023-08-21T12:03:45;10.90;;;6.37;;
68989;SDS011;56046;47.270;11.368;2023-08-21T12:06:11;8.25;;;4.63;;
68989;SDS011;56046;47.270;11.368;2023-08-21T12:08:37;11.17;;;5.60;;
68989;SDS011;56046;47.270;11.368;2023-08-21T12:11:03;9.73;;;5.70;;
68989;SDS011;56046;47.270;11.368;2023-08-21T12:13:29;8.20;;;5.30;;
68989;SDS011;56046;47.270;11.368;2023-08-21T12:15:54;8.75;;;5.18;;
68989;SDS011;56046;47.270;11.368;2023-08-21T12:18:19;6.40;;;5.33;;
68989;SDS011;56046;47.270;11.368;2023-08-21T12:20:45;8.17;;;4.87;;
68989;SDS011;56046;47.270;11.368;2023-08-21T12:23:10;6.67;;;4.50;;
68989;SDS011;56046;47.270;11.368;2023-08-21T12:25:35;8.23;;;4.77;;
68989;SDS011;56046;47.270;11.368;2023-08-21T12:28:00;6.70;;;4.03;;
68989;SDS011;56046;47.270;11.368;2023-08-21T12:30:26;7.43;;;4.30;;
68989;SDS011;56046;47.270;11.368;2023-08-21T12:32:51;7.17;;;4.27;;
68989;SDS011;56046;47.270;11.368;2023-08-21T12:35:16;8.67;;;4.07;;
68989;SDS011;56046;47.270;11.368;2023-08-21T12:37:41;7.80;;;3.80;;
68989;SDS011;56046;47.270;11.368;2023-08-21T12:40:07;9.48;;;4.70;;
68989;SDS011;56046;47.270;11.368;2023-08-21T12:42:33;9.57;;;4.87;;
68989;SDS011;56046;47.270;11.368;2023-08-21T12:44:58;6.90;;;4.30;;
68989;SDS011;56046;47.270;11.368;2023-08-21T12:47:23;6.73;;;3.43;;
68989;SDS011;56046;47.270;11.368;2023-08-21T12:49:49;8.30;;;4.03;;
68989;SDS011;56046;47.270;11.368;2023-08-21T12:52:14;5.13;;;3.20;;
68989;SDS011;56046;47.270;11.368;2023-08-21T12:54:40;7.33;;;3.10;;
68989;SDS011;56046;47.270;11.368;2023-08-21T12:57:05;6.43;;;3.20;;
68989;SDS011;56046;47.270;11.368;2023-08-21T12:59:31;8.50;;;4.37;;
68989;SDS011;56046;47.270;11.368;2023-08-21T13:01:58;7.80;;;4.13;;
68989;SDS011;56046;47.270;11.368;2023-08-21T13:04:23;7.18;;;3.40;;
68989;SDS011;56046;47.270;11.368;2023-08-21T13:06:48;6.77;;;3.30;;
68989;SDS011;56046;47.270;11.368;2023-08-21T13:09:14;8.18;;;3.70;;
68989;SDS011;56046;47.270;11.368;2023-08-21T13:11:39;6.53;;;3.17;;
68989;SDS011;56046;47.270;11.368;2023-08-21T13:14:04;7.27;;;4.23;;
68989;SDS011;56046;47.270;11.368;2023-08-21T13:16:29;10.57;;;3.90;;
68989;SDS011;56046;47.270;11.368;2023-08-21T13:18:55;7.60;;;3.97;;
68989;SDS011;56046;47.270;11.368;2023-08-21T13:21:20;6.93;;;3.80;;
68989;SDS011;56046;47.270;11.368;2023-08-21T13:23:45;10.20;;;4.07;;
68989;SDS011;56046;47.270;11.368;2023-08-21T13:26:10;7.70;;;4.17;;
68989;SDS011;56046;47.270;11.368;2023-08-21T13:28:36;10.30;;;3.90;;
68989;SDS011;56046;47.270;11.368;2023-08-21T13:31:01;7.57;;;4.30;;
68989;SDS011;56046;47.270;11.368;2023-08-21T13:33:26;9.37;;;3.50;;
68989;SDS011;56046;47.270;11.368;2023-08-21T13:35:51;6.77;;;4.17;;
68989;SDS011;56046;47.270;11.368;2023-08-21T13:38:17;7.07;;;4.40;;
68989;SDS011;56046;47.270;11.368;2023-08-21T13:40:42;6.60;;;4.47;;
68989;SDS011;56046;47.270;11.368;2023-08-21T13:43:07;7.10;;;3.97;;
68989;SDS011;56046;47.270;11.368;2023-08-21T13:45:34;7.80;;;3.83;;
68989;SDS011;56046;47.270;11.368;2023-08-21T13:48:00;7.07;;;3.93;;
68989;SDS011;56046;47.270;11.368;2023-08-21T13:50:25;8.50;;;3.67;;
68989;SDS011;56046;47.270;11.368;2023-08-21T13:52:50;6.70;;;4.63;;
68989;SDS011;56046;47.270;11.368;2023-08-21T13:55:16;8.70;;;4.00;;
68989;SDS011;56046;47.270;11.368;2023-08-21T13:57:41;7.90;;;4.03;;
68989;SDS011;56046;47.270;11.368;2023-08-21T14:00:07;8.60;;;4.40;;
68989;SDS011;56046;47.270;11.368;2023-08-21T14:02:36;6.95;;;4.40;;
68989;SDS011;56046;47.270;11.368;2023-08-21T14:05:02;7.50;;;4.57;;
68989;SDS011;56046;47.270;11.368;2023-08-21T14:07:29;7.07;;;4.20;;
68989;SDS011;56046;47.270;11.368;2023-08-21T14:09:54;7.45;;;4.45;;
68989;SDS011;56046;47.270;11.368;2023-08-21T14:12:20;10.23;;;4.87;;
68989;SDS011;56046;47.270;11.368;2023-08-21T14:14:45;8.47;;;4.40;;
68989;SDS011;56046;47.270;11.368;2023-08-21T14:17:10;7.53;;;4.00;;
68989;SDS011;56046;47.270;11.368;2023-08-21T14:19:35;8.30;;;4.03;;
68989;SDS011;56046;47.270;11.368;2023-08-21T14:22:01;7.67;;;4.07;;
68989;SDS011;56046;47.270;11.368;2023-08-21T14:24:26;7.83;;;4.10;;
68989;SDS011;56046;47.270;11.368;2023-08-21T14:26:52;6.57;;;3.92;;
68989;SDS011;56046;47.270;11.368;2023-08-21T14:29:17;8.50;;;4.57;;